sensor_id;sensor_type;location;lat;lon;timestamp;P1;durP1;ratioP1;P2;durP2;ratioP2
38457;SDS011;24239;48.058;10.486;2022-08-04T00:02:09;2.75;;;2.50;;
38457;SDS011;24239;48.058;10.486;2022-08-04T00:12:25;3.00;;;2.70;;
38457;SDS011;24239;48.058;10.486;2022-08-04T00:14:56;5.10;;;2.97;;
38457;SDS011;24239;48.058;10.486;2022-08-04T00:17:25;2.72;;;2.50;;
38457;SDS011;24239;48.058;10.486;2022-08-04T00:20:02;3.30;;;2.70;;
38457;SDS011;24239;48.058;10.486;2022-08-04T00:22:31;5.30;;;3.05;;
38457;SDS011;24239;48.058;10.486;2022-08-04T00:25:03;3.72;;;3.10;;
38457;SDS011;24239;48.058;10.486;2022-08-04T00:27:29;3.35;;;2.80;;
38457;SDS011;24239;48.058;10.486;2022-08-04T00:29:57;3.20;;;2.90;;
38457;SDS011;24239;48.058;10.486;2022-08-04T00:32:24;4.25;;;2.78;;
38457;SDS011;24239;48.058;10.486;2022-08-04T00:34:51;3.83;;;3.25;;
38457;SDS011;24239;48.058;10.486;2022-08-04T00:37:20;5.20;;;2.97;;
38457;SDS011;24239;48.058;10.486;2022-08-04T00:39:47;4.22;;;2.70;;
38457;SDS011;24239;48.058;10.486;2022-08-04T00:42:33;2.83;;;2.33;;
38457;SDS011;24239;48.058;10.486;2022-08-04T00:47:50;3.15;;;2.55;;
38457;SDS011;24239;48.058;10.486;2022-08-04T00:53:06;3.42;;;3.00;;
38457;SDS011;24239;48.058;10.486;2022-08-04T01:07:48;3.42;;;2.72;;
38457;SDS011;24239;48.058;10.486;2022-08-04T01:15:52;6.22;;;3.15;;
38457;SDS011;24239;48.058;10.486;2022-08-04T01:18:24;3.65;;;3.22;;
38457;SDS011;24239;48.058;10.486;2022-08-04T01:29:42;3.55;;;3.20;;
38457;SDS011;24239;48.058;10.486;2022-08-04T01:34:59;4.35;;;3.03;;
38457;SDS011;24239;48.058;10.486;2022-08-04T01:40:35;2.78;;;2.58;;
38457;SDS011;24239;48.058;10.486;2022-08-04T01:43:02;4.57;;;2.85;;
38457;SDS011;24239;48.058;10.486;2022-08-04T01:45:34;2.72;;;2.50;;
38457;SDS011;24239;48.058;10.486;2022-08-04T01:48:03;4.45;;;2.72;;
38457;SDS011;24239;48.058;10.486;2022-08-04T01:50:35;5.05;;;2.63;;
38457;SDS011;24239;48.058;10.486;2022-08-04T01:53:01;3.55;;;2.72;;
38457;SDS011;24239;48.058;10.486;2022-08-04T01:55:28;3.08;;;2.63;;
38457;SDS011;24239;48.058;10.486;2022-08-04T01:57:55;3.30;;;2.95;;
38457;SDS011;24239;48.058;10.486;2022-08-04T02:00:25;3.25;;;2.50;;
38457;SDS011;24239;48.058;10.486;2022-08-04T02:02:52;5.07;;;3.40;;
38457;SDS011;24239;48.058;10.486;2022-08-04T02:05:20;3.15;;;2.50;;
38457;SDS011;24239;48.058;10.486;2022-08-04T02:10:59;3.83;;;2.92;;
38457;SDS011;24239;48.058;10.486;2022-08-04T02:13:26;3.35;;;3.05;;
38457;SDS011;24239;48.058;10.486;2022-08-04T02:15:57;5.80;;;2.78;;
38457;SDS011;24239;48.058;10.486;2022-08-04T02:18:41;4.65;;;2.90;;
38457;SDS011;24239;48.058;10.486;2022-08-04T02:21:25;5.65;;;2.78;;
38457;SDS011;24239;48.058;10.486;2022-08-04T02:23:56;5.10;;;2.70;;
38457;SDS011;24239;48.058;10.486;2022-08-04T02:26:28;4.30;;;2.80;;
38457;SDS011;24239;48.058;10.486;2022-08-04T02:29:03;3.08;;;2.78;;
38457;SDS011;24239;48.058;10.486;2022-08-04T02:31:56;4.85;;;2.75;;
38457;SDS011;24239;48.058;10.486;2022-08-04T02:37:32;4.67;;;3.03;;
38457;SDS011;24239;48.058;10.486;2022-08-04T02:39:59;7.00;;;3.05;;
38457;SDS011;24239;48.058;10.486;2022-08-04T02:42:28;3.30;;;2.97;;
38457;SDS011;24239;48.058;10.486;2022-08-04T02:44:56;7.13;;;3.47;;
38457;SDS011;24239;48.058;10.486;2022-08-04T02:47:24;5.13;;;2.92;;
38457;SDS011;24239;48.058;10.486;2022-08-04T02:49:51;4.15;;;3.25;;
38457;SDS011;24239;48.058;10.486;2022-08-04T02:52:18;3.58;;;3.22;;
38457;SDS011;24239;48.058;10.486;2022-08-04T02:54:46;4.90;;;3.47;;
38457;SDS011;24239;48.058;10.486;2022-08-04T02:57:15;4.63;;;2.70;;
38457;SDS011;24239;48.058;10.486;2022-08-04T03:02:27;4.03;;;3.28;;
38457;SDS011;24239;48.058;10.486;2022-08-04T03:05:06;4.70;;;3.20;;
38457;SDS011;24239;48.058;10.486;2022-08-04T03:51:29;6.72;;;4.00;;
38457;SDS011;24239;48.058;10.486;2022-08-04T04:16:30;4.47;;;4.07;;
38457;SDS011;24239;48.058;10.486;2022-08-04T04:35:37;4.32;;;3.92;;
38457;SDS011;24239;48.058;10.486;2022-08-04T04:41:14;4.55;;;3.38;;
38457;SDS011;24239;48.058;10.486;2022-08-04T04:52:21;4.65;;;3.20;;
38457;SDS011;24239;48.058;10.486;2022-08-04T04:54:52;5.25;;;2.90;;
38457;SDS011;24239;48.058;10.486;2022-08-04T04:57:29;4.13;;;3.17;;
38457;SDS011;24239;48.058;10.486;2022-08-04T05:00:07;4.10;;;2.97;;
38457;SDS011;24239;48.058;10.486;2022-08-04T05:16:50;6.43;;;3.20;;
38457;SDS011;24239;48.058;10.486;2022-08-04T05:19:42;4.75;;;3.67;;
38457;SDS011;24239;48.058;10.486;2022-08-04T05:21:44;8.10;;;3.70;;
38457;SDS011;24239;48.058;10.486;2022-08-04T05:24:24;8.88;;;3.78;;
38457;SDS011;24239;48.058;10.486;2022-08-04T05:27:02;6.65;;;3.70;;
38457;SDS011;24239;48.058;10.486;2022-08-04T05:29:37;6.97;;;3.53;;
38457;SDS011;24239;48.058;10.486;2022-08-04T05:32:14;7.28;;;4.13;;
38457;SDS011;24239;48.058;10.486;2022-08-04T05:34:42;6.78;;;4.20;;
38457;SDS011;24239;48.058;10.486;2022-08-04T05:37:16;8.82;;;4.88;;
38457;SDS011;24239;48.058;10.486;2022-08-04T05:39:45;11.95;;;5.07;;
38457;SDS011;24239;48.058;10.486;2022-08-04T05:42:17;6.50;;;4.65;;
38457;SDS011;24239;48.058;10.486;2022-08-04T05:44:44;6.32;;;4.47;;
38457;SDS011;24239;48.058;10.486;2022-08-04T05:47:11;4.55;;;4.05;;
38457;SDS011;24239;48.058;10.486;2022-08-04T05:49:38;4.95;;;3.70;;
38457;SDS011;24239;48.058;10.486;2022-08-04T05:52:06;5.85;;;4.00;;
38457;SDS011;24239;48.058;10.486;2022-08-04T05:54:34;8.00;;;4.28;;
38457;SDS011;24239;48.058;10.486;2022-08-04T05:57:02;5.53;;;3.70;;
38457;SDS011;24239;48.058;10.486;2022-08-04T05:59:29;7.57;;;3.80;;
38457;SDS011;24239;48.058;10.486;2022-08-04T06:01:56;6.45;;;3.55;;
38457;SDS011;24239;48.058;10.486;2022-08-04T06:04:26;5.32;;;3.90;;
38457;SDS011;24239;48.058;10.486;2022-08-04T06:06:59;4.95;;;3.63;;
38457;SDS011;24239;48.058;10.486;2022-08-04T06:09:25;8.40;;;3.40;;
38457;SDS011;24239;48.058;10.486;2022-08-04T06:11:51;4.13;;;3.50;;
38457;SDS011;24239;48.058;10.486;2022-08-04T06:14:19;5.18;;;3.30;;
38457;SDS011;24239;48.058;10.486;2022-08-04T06:16:48;5.22;;;4.00;;
38457;SDS011;24239;48.058;10.486;2022-08-04T06:19:15;4.97;;;3.80;;
38457;SDS011;24239;48.058;10.486;2022-08-04T06:21:43;8.25;;;4.13;;
38457;SDS011;24239;48.058;10.486;2022-08-04T06:24:14;6.53;;;4.10;;
38457;SDS011;24239;48.058;10.486;2022-08-04T06:26:43;4.82;;;3.83;;
38457;SDS011;24239;48.058;10.486;2022-08-04T06:29:11;4.88;;;3.45;;
38457;SDS011;24239;48.058;10.486;2022-08-04T06:31:47;4.72;;;3.70;;
38457;SDS011;24239;48.058;10.486;2022-08-04T06:34:22;5.80;;;3.75;;
38457;SDS011;24239;48.058;10.486;2022-08-04T06:36:50;7.30;;;3.55;;
38457;SDS011;24239;48.058;10.486;2022-08-04T06:39:17;6.07;;;3.63;;
38457;SDS011;24239;48.058;10.486;2022-08-04T06:41:45;6.28;;;3.95;;
38457;SDS011;24239;48.058;10.486;2022-08-04T06:44:11;5.55;;;3.40;;
38457;SDS011;24239;48.058;10.486;2022-08-04T06:46:39;5.72;;;4.65;;
38457;SDS011;24239;48.058;10.486;2022-08-04T06:49:06;6.80;;;3.83;;
38457;SDS011;24239;48.058;10.486;2022-08-04T06:51:33;5.50;;;4.03;;
38457;SDS011;24239;48.058;10.486;2022-08-04T06:54:00;7.60;;;4.07;;
38457;SDS011;24239;48.058;10.486;2022-08-04T06:56:26;7.78;;;3.95;;
38457;SDS011;24239;48.058;10.486;2022-08-04T06:58:54;7.78;;;3.85;;
38457;SDS011;24239;48.058;10.486;2022-08-04T07:01:20;7.38;;;3.58;;
38457;SDS011;24239;48.058;10.486;2022-08-04T07:03:49;7.22;;;4.32;;
38457;SDS011;24239;48.058;10.486;2022-08-04T07:06:16;4.43;;;3.53;;
38457;SDS011;24239;48.058;10.486;2022-08-04T07:08:43;5.95;;;4.00;;
38457;SDS011;24239;48.058;10.486;2022-08-04T07:11:09;8.07;;;4.22;;
38457;SDS011;24239;48.058;10.486;2022-08-04T07:13:36;8.23;;;5.20;;
38457;SDS011;24239;48.058;10.486;2022-08-04T07:16:02;5.78;;;4.47;;
38457;SDS011;24239;48.058;10.486;2022-08-04T07:18:30;11.30;;;5.47;;
38457;SDS011;24239;48.058;10.486;2022-08-04T07:20:56;10.40;;;5.15;;
38457;SDS011;24239;48.058;10.486;2022-08-04T07:23:23;6.70;;;3.80;;
38457;SDS011;24239;48.058;10.486;2022-08-04T07:25:54;5.90;;;4.78;;
38457;SDS011;24239;48.058;10.486;2022-08-04T07:28:24;5.88;;;4.18;;
38457;SDS011;24239;48.058;10.486;2022-08-04T07:30:52;4.47;;;3.92;;
38457;SDS011;24239;48.058;10.486;2022-08-04T07:33:19;6.35;;;4.22;;
38457;SDS011;24239;48.058;10.486;2022-08-04T07:35:46;7.15;;;4.10;;
38457;SDS011;24239;48.058;10.486;2022-08-04T07:38:14;6.43;;;4.45;;
38457;SDS011;24239;48.058;10.486;2022-08-04T07:40:40;8.55;;;4.32;;
38457;SDS011;24239;48.058;10.486;2022-08-04T07:43:07;12.75;;;4.30;;
38457;SDS011;24239;48.058;10.486;2022-08-04T07:45:33;7.30;;;4.22;;
38457;SDS011;24239;48.058;10.486;2022-08-04T07:47:59;5.57;;;3.50;;
38457;SDS011;24239;48.058;10.486;2022-08-04T07:50:26;6.18;;;4.20;;
38457;SDS011;24239;48.058;10.486;2022-08-04T07:52:52;7.63;;;3.75;;
38457;SDS011;24239;48.058;10.486;2022-08-04T07:55:19;4.25;;;3.75;;
38457;SDS011;24239;48.058;10.486;2022-08-04T07:57:46;5.47;;;4.38;;
38457;SDS011;24239;48.058;10.486;2022-08-04T08:00:12;5.50;;;3.60;;
38457;SDS011;24239;48.058;10.486;2022-08-04T08:02:42;4.75;;;3.15;;
38457;SDS011;24239;48.058;10.486;2022-08-04T08:05:13;5.38;;;3.70;;
38457;SDS011;24239;48.058;10.486;2022-08-04T08:07:43;3.40;;;3.03;;
38457;SDS011;24239;48.058;10.486;2022-08-04T08:10:11;4.93;;;3.20;;
38457;SDS011;24239;48.058;10.486;2022-08-04T08:12:38;4.90;;;3.20;;
38457;SDS011;24239;48.058;10.486;2022-08-04T08:15:05;3.42;;;3.00;;
38457;SDS011;24239;48.058;10.486;2022-08-04T08:17:32;4.75;;;3.20;;
38457;SDS011;24239;48.058;10.486;2022-08-04T08:19:59;3.33;;;2.78;;
38457;SDS011;24239;48.058;10.486;2022-08-04T08:22:25;6.80;;;3.25;;
38457;SDS011;24239;48.058;10.486;2022-08-04T08:24:51;3.60;;;3.08;;
38457;SDS011;24239;48.058;10.486;2022-08-04T08:27:17;5.40;;;3.17;;
38457;SDS011;24239;48.058;10.486;2022-08-04T08:29:43;4.40;;;3.42;;
38457;SDS011;24239;48.058;10.486;2022-08-04T08:32:10;3.85;;;3.10;;
38457;SDS011;24239;48.058;10.486;2022-08-04T08:34:39;5.63;;;3.08;;
38457;SDS011;24239;48.058;10.486;2022-08-04T08:39:38;4.90;;;2.97;;
38457;SDS011;24239;48.058;10.486;2022-08-04T08:56:15;6.22;;;3.55;;
38457;SDS011;24239;48.058;10.486;2022-08-04T09:10:08;4.15;;;3.72;;
38457;SDS011;24239;48.058;10.486;2022-08-04T09:12:55;4.53;;;3.33;;
38457;SDS011;24239;48.058;10.486;2022-08-04T09:21:17;10.05;;;4.15;;
38457;SDS011;24239;48.058;10.486;2022-08-04T09:46:18;3.97;;;2.92;;
38457;SDS011;24239;48.058;10.486;2022-08-04T09:54:14;4.38;;;3.42;;
38457;SDS011;24239;48.058;10.486;2022-08-04T10:02:23;10.70;;;4.28;;
38457;SDS011;24239;48.058;10.486;2022-08-04T10:04:52;3.30;;;3.00;;
38457;SDS011;24239;48.058;10.486;2022-08-04T10:18:39;8.13;;;3.92;;
38457;SDS011;24239;48.058;10.486;2022-08-04T10:27:09;3.10;;;2.80;;
38457;SDS011;24239;48.058;10.486;2022-08-04T10:29:45;4.30;;;2.92;;
38457;SDS011;24239;48.058;10.486;2022-08-04T10:40:19;3.40;;;2.90;;
38457;SDS011;24239;48.058;10.486;2022-08-04T10:43:08;3.05;;;2.75;;
38457;SDS011;24239;48.058;10.486;2022-08-04T10:45:43;4.32;;;2.95;;
38457;SDS011;24239;48.058;10.486;2022-08-04T10:48:16;6.03;;;3.30;;
38457;SDS011;24239;48.058;10.486;2022-08-04T10:54:06;4.27;;;3.00;;
38457;SDS011;24239;48.058;10.486;2022-08-04T10:56:39;4.97;;;2.80;;
38457;SDS011;24239;48.058;10.486;2022-08-04T10:59:15;4.13;;;3.13;;
38457;SDS011;24239;48.058;10.486;2022-08-04T11:01:46;4.57;;;2.92;;
38457;SDS011;24239;48.058;10.486;2022-08-04T11:04:16;3.85;;;2.88;;
38457;SDS011;24239;48.058;10.486;2022-08-04T11:07:04;4.28;;;3.00;;
38457;SDS011;24239;48.058;10.486;2022-08-04T11:09:32;6.25;;;2.53;;
38457;SDS011;24239;48.058;10.486;2022-08-04T11:17:26;3.15;;;2.85;;
38457;SDS011;24239;48.058;10.486;2022-08-04T11:22:41;3.63;;;2.90;;
38457;SDS011;24239;48.058;10.486;2022-08-04T11:25:17;4.00;;;3.00;;
38457;SDS011;24239;48.058;10.486;2022-08-04T11:30:24;4.90;;;2.63;;
38457;SDS011;24239;48.058;10.486;2022-08-04T11:33:10;3.85;;;2.75;;
38457;SDS011;24239;48.058;10.486;2022-08-04T11:35:56;4.57;;;2.97;;
38457;SDS011;24239;48.058;10.486;2022-08-04T11:41:39;4.63;;;2.88;;
38457;SDS011;24239;48.058;10.486;2022-08-04T11:49:51;3.37;;;2.80;;
38457;SDS011;24239;48.058;10.486;2022-08-04T11:52:22;5.82;;;3.47;;
38457;SDS011;24239;48.058;10.486;2022-08-04T11:54:51;3.75;;;2.90;;
38457;SDS011;24239;48.058;10.486;2022-08-04T11:57:18;3.45;;;2.60;;
38457;SDS011;24239;48.058;10.486;2022-08-04T11:59:44;6.05;;;2.90;;
38457;SDS011;24239;48.058;10.486;2022-08-04T12:02:18;4.50;;;2.60;;
38457;SDS011;24239;48.058;10.486;2022-08-04T12:04:58;4.93;;;3.08;;
38457;SDS011;24239;48.058;10.486;2022-08-04T12:07:34;5.53;;;3.38;;
38457;SDS011;24239;48.058;10.486;2022-08-04T12:15:26;4.55;;;2.65;;
38457;SDS011;24239;48.058;10.486;2022-08-04T12:21:00;5.38;;;3.10;;
38457;SDS011;24239;48.058;10.486;2022-08-04T12:23:40;3.95;;;2.53;;
38457;SDS011;24239;48.058;10.486;2022-08-04T12:26:09;3.38;;;2.50;;
38457;SDS011;24239;48.058;10.486;2022-08-04T12:28:54;3.22;;;2.17;;
38457;SDS011;24239;48.058;10.486;2022-08-04T12:36:46;23.88;;;20.77;;
38457;SDS011;24239;48.058;10.486;2022-08-04T12:39:21;2.90;;;2.55;;
38457;SDS011;24239;48.058;10.486;2022-08-04T12:41:57;4.85;;;2.50;;
38457;SDS011;24239;48.058;10.486;2022-08-04T12:44:38;2.97;;;2.63;;
38457;SDS011;24239;48.058;10.486;2022-08-04T12:47:10;4.43;;;2.85;;
38457;SDS011;24239;48.058;10.486;2022-08-04T12:49:40;5.78;;;2.33;;
38457;SDS011;24239;48.058;10.486;2022-08-04T12:52:09;3.23;;;2.57;;
38457;SDS011;24239;48.058;10.486;2022-08-04T12:54:36;2.42;;;2.22;;
38457;SDS011;24239;48.058;10.486;2022-08-04T12:57:07;4.45;;;2.65;;
38457;SDS011;24239;48.058;10.486;2022-08-04T12:59:38;5.93;;;2.67;;
38457;SDS011;24239;48.058;10.486;2022-08-04T13:02:06;3.80;;;2.50;;
38457;SDS011;24239;48.058;10.486;2022-08-04T13:04:43;4.03;;;2.40;;
38457;SDS011;24239;48.058;10.486;2022-08-04T13:07:12;3.17;;;2.28;;
38457;SDS011;24239;48.058;10.486;2022-08-04T13:09:42;5.18;;;2.40;;
38457;SDS011;24239;48.058;10.486;2022-08-04T13:12:13;6.05;;;2.50;;
38457;SDS011;24239;48.058;10.486;2022-08-04T13:14:50;2.63;;;2.42;;
38457;SDS011;24239;48.058;10.486;2022-08-04T13:17:22;2.63;;;2.42;;
38457;SDS011;24239;48.058;10.486;2022-08-04T13:19:49;4.30;;;2.80;;
38457;SDS011;24239;48.058;10.486;2022-08-04T13:22:27;2.28;;;2.08;;
38457;SDS011;24239;48.058;10.486;2022-08-04T13:24:54;5.18;;;2.22;;
38457;SDS011;24239;48.058;10.486;2022-08-04T13:27:23;6.22;;;2.47;;
38457;SDS011;24239;48.058;10.486;2022-08-04T13:29:50;7.75;;;2.05;;
38457;SDS011;24239;48.058;10.486;2022-08-04T13:32:20;2.75;;;1.80;;
38457;SDS011;24239;48.058;10.486;2022-08-04T13:34:49;4.28;;;1.98;;
38457;SDS011;24239;48.058;10.486;2022-08-04T13:37:17;1.85;;;1.75;;
38457;SDS011;24239;48.058;10.486;2022-08-04T13:39:45;3.83;;;1.67;;
38457;SDS011;24239;48.058;10.486;2022-08-04T13:42:14;3.42;;;2.10;;
38457;SDS011;24239;48.058;10.486;2022-08-04T13:44:42;2.20;;;1.98;;
38457;SDS011;24239;48.058;10.486;2022-08-04T13:47:20;3.70;;;2.28;;
38457;SDS011;24239;48.058;10.486;2022-08-04T13:52:52;4.50;;;2.22;;
38457;SDS011;24239;48.058;10.486;2022-08-04T13:57:58;2.00;;;1.83;;
38457;SDS011;24239;48.058;10.486;2022-08-04T14:00:37;3.95;;;1.73;;
38457;SDS011;24239;48.058;10.486;2022-08-04T14:03:07;2.95;;;1.58;;
38457;SDS011;24239;48.058;10.486;2022-08-04T14:05:33;3.05;;;1.40;;
38457;SDS011;24239;48.058;10.486;2022-08-04T14:08:07;2.42;;;1.40;;
38457;SDS011;24239;48.058;10.486;2022-08-04T14:13:07;2.15;;;1.40;;
38457;SDS011;24239;48.058;10.486;2022-08-04T14:15:37;2.20;;;1.50;;
38457;SDS011;24239;48.058;10.486;2022-08-04T14:18:17;1.98;;;1.60;;
38457;SDS011;24239;48.058;10.486;2022-08-04T14:21:03;3.75;;;1.60;;
38457;SDS011;24239;48.058;10.486;2022-08-04T14:23:36;2.92;;;1.58;;
38457;SDS011;24239;48.058;10.486;2022-08-04T14:29:11;1.88;;;1.60;;
38457;SDS011;24239;48.058;10.486;2022-08-04T14:31:38;1.92;;;1.70;;
38457;SDS011;24239;48.058;10.486;2022-08-04T14:34:05;4.55;;;1.67;;
38457;SDS011;24239;48.058;10.486;2022-08-04T14:36:38;2.63;;;1.40;;
38457;SDS011;24239;48.058;10.486;2022-08-04T14:39:05;2.28;;;1.98;;
38457;SDS011;24239;48.058;10.486;2022-08-04T14:41:43;1.90;;;1.60;;
38457;SDS011;24239;48.058;10.486;2022-08-04T14:44:13;2.00;;;1.73;;
38457;SDS011;24239;48.058;10.486;2022-08-04T14:46:49;9.68;;;1.90;;
38457;SDS011;24239;48.058;10.486;2022-08-04T14:49:16;4.32;;;1.70;;
38457;SDS011;24239;48.058;10.486;2022-08-04T14:51:43;2.47;;;1.70;;
38457;SDS011;24239;48.058;10.486;2022-08-04T14:54:15;3.47;;;1.80;;
38457;SDS011;24239;48.058;10.486;2022-08-04T14:56:41;1.58;;;1.48;;
38457;SDS011;24239;48.058;10.486;2022-08-04T14:59:16;5.18;;;1.40;;
38457;SDS011;24239;48.058;10.486;2022-08-04T15:01:43;3.50;;;1.40;;
38457;SDS011;24239;48.058;10.486;2022-08-04T15:04:10;1.77;;;1.38;;
38457;SDS011;24239;48.058;10.486;2022-08-04T15:06:37;2.75;;;1.40;;
38457;SDS011;24239;48.058;10.486;2022-08-04T15:09:05;2.33;;;1.58;;
38457;SDS011;24239;48.058;10.486;2022-08-04T15:11:33;2.50;;;1.40;;
38457;SDS011;24239;48.058;10.486;2022-08-04T15:14:02;4.28;;;1.63;;
38457;SDS011;24239;48.058;10.486;2022-08-04T15:16:29;2.17;;;1.52;;
38457;SDS011;24239;48.058;10.486;2022-08-04T15:18:56;1.38;;;1.27;;
38457;SDS011;24239;48.058;10.486;2022-08-04T15:21:23;1.27;;;1.17;;
38457;SDS011;24239;48.058;10.486;2022-08-04T15:23:52;1.10;;;1.00;;
38457;SDS011;24239;48.058;10.486;2022-08-04T15:26:21;0.90;;;0.90;;
38457;SDS011;24239;48.058;10.486;2022-08-04T15:28:55;2.25;;;1.00;;
38457;SDS011;24239;48.058;10.486;2022-08-04T15:31:24;2.70;;;0.90;;
38457;SDS011;24239;48.058;10.486;2022-08-04T15:33:54;1.17;;;0.98;;
38457;SDS011;24239;48.058;10.486;2022-08-04T15:36:28;1.33;;;1.10;;
38457;SDS011;24239;48.058;10.486;2022-08-04T15:38:59;2.35;;;1.10;;
38457;SDS011;24239;48.058;10.486;2022-08-04T15:41:43;1.83;;;1.23;;
38457;SDS011;24239;48.058;10.486;2022-08-04T15:47:09;2.53;;;1.52;;
38457;SDS011;24239;48.058;10.486;2022-08-04T15:52:04;1.30;;;1.20;;
38457;SDS011;24239;48.058;10.486;2022-08-04T15:54:30;1.65;;;1.20;;
38457;SDS011;24239;48.058;10.486;2022-08-04T15:56:57;1.40;;;1.30;;
38457;SDS011;24239;48.058;10.486;2022-08-04T16:07:58;4.85;;;1.70;;
38457;SDS011;24239;48.058;10.486;2022-08-04T16:12:54;1.55;;;1.40;;
38457;SDS011;24239;48.058;10.486;2022-08-04T16:18:10;3.60;;;2.20;;
38457;SDS011;24239;48.058;10.486;2022-08-04T16:20:44;2.83;;;1.70;;
38457;SDS011;24239;48.058;10.486;2022-08-04T16:25:57;3.05;;;1.40;;
38457;SDS011;24239;48.058;10.486;2022-08-04T16:28:36;3.88;;;1.80;;
38457;SDS011;24239;48.058;10.486;2022-08-04T16:31:05;3.17;;;1.70;;
38457;SDS011;24239;48.058;10.486;2022-08-04T16:33:32;1.77;;;1.58;;
38457;SDS011;24239;48.058;10.486;2022-08-04T16:35:59;1.90;;;1.52;;
38457;SDS011;24239;48.058;10.486;2022-08-04T16:38:25;3.47;;;1.77;;
38457;SDS011;24239;48.058;10.486;2022-08-04T16:43:21;1.92;;;1.58;;
38457;SDS011;24239;48.058;10.486;2022-08-04T16:46:00;2.30;;;1.60;;
38457;SDS011;24239;48.058;10.486;2022-08-04T16:50:58;3.22;;;1.70;;
38457;SDS011;24239;48.058;10.486;2022-08-04T16:53:32;2.08;;;1.70;;
38457;SDS011;24239;48.058;10.486;2022-08-04T16:56:03;1.67;;;1.50;;
38457;SDS011;24239;48.058;10.486;2022-08-04T16:58:30;2.35;;;1.50;;
38457;SDS011;24239;48.058;10.486;2022-08-04T17:00:58;1.90;;;1.70;;
38457;SDS011;24239;48.058;10.486;2022-08-04T17:03:32;3.65;;;1.80;;
38457;SDS011;24239;48.058;10.486;2022-08-04T17:06:06;2.75;;;1.40;;
38457;SDS011;24239;48.058;10.486;2022-08-04T17:08:38;2.10;;;1.60;;
38457;SDS011;24239;48.058;10.486;2022-08-04T17:11:08;1.50;;;1.38;;
38457;SDS011;24239;48.058;10.486;2022-08-04T17:16:08;2.00;;;1.10;;
38457;SDS011;24239;48.058;10.486;2022-08-04T17:18:42;2.40;;;1.65;;
38457;SDS011;24239;48.058;10.486;2022-08-04T17:21:15;1.40;;;1.30;;
38457;SDS011;24239;48.058;10.486;2022-08-04T17:23:52;1.52;;;1.30;;
38457;SDS011;24239;48.058;10.486;2022-08-04T17:26:22;3.27;;;1.47;;
38457;SDS011;24239;48.058;10.486;2022-08-04T17:28:51;1.92;;;1.65;;
38457;SDS011;24239;48.058;10.486;2022-08-04T17:31:19;5.55;;;2.42;;
38457;SDS011;24239;48.058;10.486;2022-08-04T17:33:50;1.65;;;1.55;;
38457;SDS011;24239;48.058;10.486;2022-08-04T17:36:21;2.80;;;1.42;;
38457;SDS011;24239;48.058;10.486;2022-08-04T17:38:50;3.03;;;1.50;;
38457;SDS011;24239;48.058;10.486;2022-08-04T17:41:21;1.75;;;1.65;;
38457;SDS011;24239;48.058;10.486;2022-08-04T17:48:44;3.00;;;1.40;;
38457;SDS011;24239;48.058;10.486;2022-08-04T17:51:20;2.60;;;1.40;;
38457;SDS011;24239;48.058;10.486;2022-08-04T17:53:49;4.35;;;1.80;;
38457;SDS011;24239;48.058;10.486;2022-08-04T17:59:23;3.17;;;1.77;;
38457;SDS011;24239;48.058;10.486;2022-08-04T18:12:18;1.92;;;1.83;;
38457;SDS011;24239;48.058;10.486;2022-08-04T18:14:47;2.42;;;2.08;;
38457;SDS011;24239;48.058;10.486;2022-08-04T18:17:15;2.22;;;1.85;;
38457;SDS011;24239;48.058;10.486;2022-08-04T18:19:57;2.58;;;1.90;;
38457;SDS011;24239;48.058;10.486;2022-08-04T18:22:22;3.75;;;2.10;;
38457;SDS011;24239;48.058;10.486;2022-08-04T18:24:49;3.28;;;2.38;;
38457;SDS011;24239;48.058;10.486;2022-08-04T18:27:16;7.32;;;3.67;;
38457;SDS011;24239;48.058;10.486;2022-08-04T18:29:44;5.90;;;3.67;;
38457;SDS011;24239;48.058;10.486;2022-08-04T18:32:10;9.68;;;7.40;;
38457;SDS011;24239;48.058;10.486;2022-08-04T18:34:36;19.13;;;14.30;;
38457;SDS011;24239;48.058;10.486;2022-08-04T18:37:02;17.08;;;14.88;;
38457;SDS011;24239;48.058;10.486;2022-08-04T18:39:28;13.27;;;10.43;;
38457;SDS011;24239;48.058;10.486;2022-08-04T18:41:55;23.85;;;19.77;;
38457;SDS011;24239;48.058;10.486;2022-08-04T18:44:21;33.33;;;26.10;;
38457;SDS011;24239;48.058;10.486;2022-08-04T18:46:53;34.08;;;15.93;;
38457;SDS011;24239;48.058;10.486;2022-08-04T18:49:19;25.42;;;8.80;;
38457;SDS011;24239;48.058;10.486;2022-08-04T18:51:48;20.63;;;6.43;;
38457;SDS011;24239;48.058;10.486;2022-08-04T18:54:18;21.48;;;6.00;;
38457;SDS011;24239;48.058;10.486;2022-08-04T18:56:51;18.42;;;5.78;;
38457;SDS011;24239;48.058;10.486;2022-08-04T18:59:19;14.63;;;7.20;;
38457;SDS011;24239;48.058;10.486;2022-08-04T19:01:45;8.05;;;4.18;;
38457;SDS011;24239;48.058;10.486;2022-08-04T19:04:12;6.93;;;3.47;;
38457;SDS011;24239;48.058;10.486;2022-08-04T19:06:37;3.95;;;3.50;;
38457;SDS011;24239;48.058;10.486;2022-08-04T19:09:05;5.45;;;3.03;;
38457;SDS011;24239;48.058;10.486;2022-08-04T19:11:32;17.60;;;3.95;;
38457;SDS011;24239;48.058;10.486;2022-08-04T19:13:59;4.15;;;3.30;;
38457;SDS011;24239;48.058;10.486;2022-08-04T19:16:26;6.03;;;3.40;;
38457;SDS011;24239;48.058;10.486;2022-08-04T19:18:55;4.10;;;3.17;;
38457;SDS011;24239;48.058;10.486;2022-08-04T19:21:21;7.57;;;3.33;;
38457;SDS011;24239;48.058;10.486;2022-08-04T19:23:47;8.00;;;4.70;;
38457;SDS011;24239;48.058;10.486;2022-08-04T19:26:13;10.25;;;4.15;;
38457;SDS011;24239;48.058;10.486;2022-08-04T19:28:39;5.45;;;3.28;;
38457;SDS011;24239;48.058;10.486;2022-08-04T19:31:06;7.60;;;3.15;;
38457;SDS011;24239;48.058;10.486;2022-08-04T19:33:34;5.55;;;3.38;;
38457;SDS011;24239;48.058;10.486;2022-08-04T19:36:01;11.25;;;3.78;;
38457;SDS011;24239;48.058;10.486;2022-08-04T19:38:27;7.68;;;3.95;;
38457;SDS011;24239;48.058;10.486;2022-08-04T19:40:56;8.18;;;4.03;;
38457;SDS011;24239;48.058;10.486;2022-08-04T19:43:22;5.07;;;3.53;;
38457;SDS011;24239;48.058;10.486;2022-08-04T19:45:48;6.63;;;3.58;;
38457;SDS011;24239;48.058;10.486;2022-08-04T19:48:14;11.80;;;4.00;;
38457;SDS011;24239;48.058;10.486;2022-08-04T19:50:40;8.35;;;3.80;;
38457;SDS011;24239;48.058;10.486;2022-08-04T19:53:06;5.90;;;3.88;;
38457;SDS011;24239;48.058;10.486;2022-08-04T19:55:32;6.88;;;4.72;;
38457;SDS011;24239;48.058;10.486;2022-08-04T19:58:02;6.07;;;4.32;;
38457;SDS011;24239;48.058;10.486;2022-08-04T20:00:28;7.47;;;3.92;;
38457;SDS011;24239;48.058;10.486;2022-08-04T20:02:55;7.03;;;4.03;;
38457;SDS011;24239;48.058;10.486;2022-08-04T20:05:21;5.28;;;3.92;;
38457;SDS011;24239;48.058;10.486;2022-08-04T20:07:47;4.88;;;3.78;;
38457;SDS011;24239;48.058;10.486;2022-08-04T20:10:12;4.90;;;4.25;;
38457;SDS011;24239;48.058;10.486;2022-08-04T20:12:38;5.28;;;4.00;;
38457;SDS011;24239;48.058;10.486;2022-08-04T20:15:04;5.22;;;4.05;;
38457;SDS011;24239;48.058;10.486;2022-08-04T20:17:31;8.18;;;4.13;;
38457;SDS011;24239;48.058;10.486;2022-08-04T20:19:56;8.07;;;3.97;;
38457;SDS011;24239;48.058;10.486;2022-08-04T20:22:22;8.20;;;3.85;;
38457;SDS011;24239;48.058;10.486;2022-08-04T20:24:48;5.55;;;4.47;;
38457;SDS011;24239;48.058;10.486;2022-08-04T20:27:14;7.07;;;3.95;;
38457;SDS011;24239;48.058;10.486;2022-08-04T20:29:41;6.32;;;3.92;;
38457;SDS011;24239;48.058;10.486;2022-08-04T20:32:09;6.40;;;3.97;;
38457;SDS011;24239;48.058;10.486;2022-08-04T20:34:34;4.50;;;3.90;;
38457;SDS011;24239;48.058;10.486;2022-08-04T20:37:00;5.40;;;4.18;;
38457;SDS011;24239;48.058;10.486;2022-08-04T20:39:26;7.60;;;4.15;;
38457;SDS011;24239;48.058;10.486;2022-08-04T20:41:52;4.95;;;4.03;;